Time;durP1;ratioP1;P1;durP2;ratioP2;P2;SDS_P1;SDS_P2;PMS_P1;PMS_P2;Temp;Humidity;BMP_temperature;BMP_pressure;BME280_temperature;BME280_humidity;BME280_pressure;Samples;Min_cycle;Max_cycle;Signal;HPM_P1;HPM_P2
2022/06/30 00:02:07;;;;;;;10.45;9.45;;;25.30;68.60;;;;;;5072211;28;20330;-75
2022/06/30 00:04:33;;;;;;;9.80;8.68;;;25.20;69.80;;;;;;5072137;28;20058;-77
2022/06/30 00:06:59;;;;;;;9.60;8.63;;;25.20;70.80;;;;;;5072409;28;20383;-77
2022/06/30 00:09:25;;;;;;;7.93;7.18;;;25.20;72.10;;;;;;5071054;28;20031;-76
2022/06/30 00:11:50;;;;;;;8.85;8.05;;;25.20;72.20;;;;;;5071853;28;20455;-76
2022/06/30 00:14:16;;;;;;;8.07;7.38;;;25.20;72.50;;;;;;5072389;28;20464;-76
2022/06/30 00:16:43;;;;;;;9.07;8.27;;;25.20;73.30;;;;;;5072333;28;20028;-75
2022/06/30 00:19:09;;;;;;;9.35;8.13;;;25.10;74.50;;;;;;5071970;28;20052;-76
2022/06/30 00:21:34;;;;;;;8.38;7.68;;;25.10;74.90;;;;;;5072058;28;20052;-76
2022/06/30 00:24:00;;;;;;;8.57;7.78;;;25.10;77.20;;;;;;5072077;28;20028;-76
2022/06/30 00:26:26;;;;;;;10.40;8.38;;;25.10;77.00;;;;;;5071905;28;20068;-75
2022/06/30 00:28:52;;;;;;;8.60;7.80;;;25.10;78.10;;;;;;5072308;28;20021;-76
2022/06/30 00:31:18;;;;;;;8.45;7.72;;;25.10;78.40;;;;;;5071805;28;20048;-75
2022/06/30 00:33:44;;;;;;;9.05;8.25;;;25.10;82.00;;;;;;5072955;28;20027;-75
2022/06/30 00:36:10;;;;;;;9.13;8.32;;;25.00;82.50;;;;;;5073494;28;20103;-76
2022/06/30 00:38:38;;;;;;;9.75;8.23;;;25.00;83.80;;;;;;5073193;28;20094;-76
2022/06/30 00:41:03;;;;;;;8.75;7.85;;;25.00;85.00;;;;;;5073482;28;20039;-76
2022/06/30 00:43:29;;;;;;;8.90;8.00;;;25.00;85.00;;;;;;5073449;28;20020;-75
2022/06/30 00:45:55;;;;;;;9.00;8.10;;;24.90;90.30;;;;;;5073178;28;20029;-76
2022/06/30 00:48:21;;;;;;;9.15;7.70;;;24.90;90.90;;;;;;5077343;28;20032;-76
2022/06/30 00:50:47;;;;;;;8.98;8.05;;;24.90;92.20;;;;;;5077388;28;20084;-76
2022/06/30 00:53:17;;;;;;;9.13;8.13;;;24.80;93.60;;;;;;5076676;28;20060;-75
2022/06/30 00:55:46;;;;;;;12.27;8.30;;;24.80;95.30;;;;;;5077168;28;20467;-75
2022/06/30 00:58:15;;;;;;;9.30;8.20;;;24.80;93.30;;;;;;5075847;28;20066;-76
2022/06/30 01:00:41;;;;;;;9.57;8.65;;;24.80;93.10;;;;;;5076573;28;20133;-76
2022/06/30 01:03:09;;;;;;;9.18;8.27;;;24.70;93.60;;;;;;5077351;28;20459;-77
2022/06/30 01:05:35;;;;;;;10.13;9.32;;;24.70;96.10;;;;;;5076973;28;20028;-76
2022/06/30 01:08:02;;;;;;;9.75;8.85;;;24.70;95.90;;;;;;5076650;28;20379;-75
2022/06/30 01:13:13;;;;;;;11.52;8.90;;;24.60;99.90;;;;;;5076851;28;20085;-77
2022/06/30 01:15:39;;;;;;;9.60;8.63;;;24.60;99.90;;;;;;5076649;28;20119;-75
2022/06/30 01:18:05;;;;;;;9.70;8.80;;;24.50;98.70;;;;;;5076540;28;20107;-75
2022/06/30 01:20:33;;;;;;;9.80;9.00;;;24.50;99.90;;;;;;5076173;28;20028;-75
2022/06/30 01:23:01;;;;;;;9.32;8.48;;;24.50;99.90;;;;;;5075392;28;20025;-77
2022/06/30 01:25:27;;;;;;;13.23;9.10;;;24.40;99.90;;;;;;5076664;28;20025;-77
2022/06/30 01:27:53;;;;;;;9.25;8.32;;;24.40;99.90;;;;;;5076471;28;20047;-77
2022/06/30 01:30:20;;;;;;;9.98;8.60;;;24.40;99.90;;;;;;5075177;28;20025;-75
2022/06/30 01:32:46;;;;;;;9.75;8.90;;;24.40;99.90;;;;;;5076529;28;20031;-76
2022/06/30 01:35:12;;;;;;;12.40;8.82;;;24.40;99.90;;;;;;5076247;28;20029;-75
2022/06/30 01:37:58;;;;;;;10.27;8.65;;;24.40;99.90;;;;;;5076655;28;20078;-76
2022/06/30 01:40:26;;;;;;;9.48;8.68;;;24.40;99.90;;;;;;5076454;28;20077;-76
2022/06/30 01:42:52;;;;;;;9.13;8.32;;;24.40;99.90;;;;;;5076277;28;20028;-75
2022/06/30 01:45:19;;;;;;;9.48;8.57;;;24.40;99.90;;;;;;5076350;28;20422;-77
2022/06/30 01:47:45;;;;;;;9.05;8.25;;;24.30;99.90;;;;;;5076354;28;20055;-75
2022/06/30 01:50:16;;;;;;;10.13;8.93;;;24.30;99.90;;;;;;5075769;28;20029;-75
2022/06/30 01:52:42;;;;;;;9.65;8.75;;;24.30;99.90;;;;;;5076102;28;20039;-74
2022/06/30 01:55:08;;;;;;;10.15;8.15;;;24.30;99.90;;;;;;5076014;28;20594;-75
2022/06/30 01:57:35;;;;;;;11.02;8.20;;;24.30;99.90;;;;;;5075519;28;20021;-74
2022/06/30 02:00:06;;;;;;;9.80;8.63;;;24.30;99.90;;;;;;5075758;28;20077;-76
2022/06/30 02:02:32;;;;;;;10.45;9.38;;;24.30;99.90;;;;;;5075788;28;20017;-77
2022/06/30 02:04:58;;;;;;;10.52;9.52;;;24.30;99.90;;;;;;5076164;28;20035;-76
2022/06/30 02:07:24;;;;;;;9.57;8.77;;;24.20;99.90;;;;;;5076176;28;20089;-76
2022/06/30 02:09:53;;;;;;;10.07;9.07;;;24.20;99.90;;;;;;5074243;28;20029;-75
2022/06/30 02:15:06;;;;;;;14.07;9.48;;;24.20;99.90;;;;;;5075578;28;20039;-76
2022/06/30 02:17:32;;;;;;;10.73;9.48;;;24.20;99.90;;;;;;5075366;28;20108;-77
2022/06/30 02:19:57;;;;;;;9.35;8.45;;;24.20;99.90;;;;;;5075651;28;20128;-75
2022/06/30 02:22:23;;;;;;;9.77;8.75;;;24.20;99.90;;;;;;5075644;28;20024;-75
2022/06/30 02:24:49;;;;;;;12.07;9.40;;;24.20;99.90;;;;;;5074017;28;20035;-75
2022/06/30 02:27:15;;;;;;;10.20;8.80;;;24.10;99.90;;;;;;5075535;28;20049;-76
2022/06/30 02:29:41;;;;;;;9.75;8.77;;;24.20;99.90;;;;;;5074184;28;20020;-76
2022/06/30 02:32:07;;;;;;;10.57;9.48;;;24.20;99.90;;;;;;5074754;28;20090;-76
2022/06/30 02:34:33;;;;;;;13.55;9.35;;;24.10;99.90;;;;;;5075283;28;20454;-75
2022/06/30 02:36:59;;;;;;;13.13;9.13;;;24.00;99.90;;;;;;5075225;28;20059;-75
2022/06/30 02:39:24;;;;;;;10.50;8.68;;;24.00;99.90;;;;;;5075372;28;20441;-76
2022/06/30 02:41:50;;;;;;;10.32;9.10;;;24.00;99.90;;;;;;5075485;28;20110;-77
2022/06/30 02:44:16;;;;;;;12.00;8.93;;;24.00;99.90;;;;;;5073801;28;20024;-75
2022/06/30 02:46:42;;;;;;;9.57;8.68;;;24.00;99.90;;;;;;5074912;28;20360;-76
2022/06/30 02:49:08;;;;;;;10.07;8.52;;;23.90;99.90;;;;;;5075092;28;20112;-76
2022/06/30 02:51:34;;;;;;;11.40;9.43;;;23.90;99.90;;;;;;5074315;28;20063;-76
2022/06/30 02:54:00;;;;;;;10.10;8.40;;;23.90;99.90;;;;;;5074686;28;20033;-77
2022/06/30 02:56:25;;;;;;;14.20;9.38;;;23.80;99.90;;;;;;5074941;28;20028;-77
2022/06/30 02:58:52;;;;;;;11.85;10.35;;;23.70;99.90;;;;;;5074341;28;20020;-75
2022/06/30 03:01:18;;;;;;;13.35;10.23;;;23.70;99.90;;;;;;5074849;28;20491;-76
2022/06/30 03:03:43;;;;;;;12.57;11.18;;;23.70;99.90;;;;;;5074601;28;20052;-76
2022/06/30 03:06:09;;;;;;;11.52;10.30;;;23.70;99.90;;;;;;5074421;28;20028;-76
2022/06/30 03:08:35;;;;;;;12.30;10.27;;;23.70;99.90;;;;;;5074391;28;20028;-77
2022/06/30 03:11:01;;;;;;;10.73;9.63;;;23.70;99.90;;;;;;5074375;28;20142;-76
2022/06/30 03:13:26;;;;;;;11.93;10.35;;;23.60;99.90;;;;;;5073970;28;20035;-75
2022/06/30 03:15:52;;;;;;;10.65;9.52;;;23.70;99.90;;;;;;5074533;28;20040;-76
2022/06/30 03:18:18;;;;;;;10.60;9.50;;;23.60;99.90;;;;;;5074521;28;20463;-76
2022/06/30 03:20:44;;;;;;;10.88;9.77;;;23.60;99.90;;;;;;5074118;28;20039;-76
2022/06/30 03:23:10;;;;;;;12.13;10.23;;;23.60;99.90;;;;;;5074724;28;20467;-75
2022/06/30 03:25:36;;;;;;;11.43;9.75;;;23.70;99.90;;;;;;5074078;28;20027;-76
2022/06/30 03:28:05;;;;;;;15.43;9.65;;;23.70;99.90;;;;;;5073593;28;20044;-77
2022/06/30 03:30:31;;;;;;;12.18;9.73;;;23.60;99.90;;;;;;5074229;28;20032;-78
2022/06/30 03:32:57;;;;;;;11.50;9.85;;;23.60;99.90;;;;;;5072820;28;20032;-77
2022/06/30 03:35:22;;;;;;;11.18;10.07;;;23.70;99.90;;;;;;5074256;28;20025;-77
2022/06/30 03:37:48;;;;;;;10.35;9.43;;;23.60;99.90;;;;;;5074290;28;20058;-76
2022/06/30 03:40:14;;;;;;;11.32;10.05;;;23.60;99.90;;;;;;5074036;28;20383;-77
2022/06/30 03:42:40;;;;;;;9.15;8.35;;;23.50;99.90;;;;;;5072694;28;20052;-76
2022/06/30 03:45:06;;;;;;;10.27;9.38;;;23.40;99.90;;;;;;5074205;28;20025;-76
2022/06/30 03:47:32;;;;;;;12.38;11.15;;;23.40;99.90;;;;;;5073895;28;20024;-77
2022/06/30 03:49:58;;;;;;;14.95;12.23;;;23.20;99.90;;;;;;5074008;28;20037;-76
2022/06/30 03:52:24;;;;;;;18.58;12.70;;;23.10;99.90;;;;;;5074291;28;20032;-76
2022/06/30 03:54:50;;;;;;;14.63;10.85;;;23.00;99.90;;;;;;5073356;28;20025;-77
2022/06/30 03:57:16;;;;;;;13.73;11.63;;;22.80;99.90;;;;;;5073935;28;20032;-76
2022/06/30 03:59:42;;;;;;;12.00;10.82;;;22.80;99.90;;;;;;5073931;28;20032;-76
2022/06/30 04:02:07;;;;;;;11.43;10.32;;;22.70;99.90;;;;;;5072268;28;20037;-76
2022/06/30 04:04:33;;;;;;;12.02;10.93;;;22.60;99.90;;;;;;5073579;28;20033;-76
2022/06/30 04:06:59;;;;;;;15.15;10.88;;;22.60;99.90;;;;;;5073836;28;20063;-76
2022/06/30 04:09:25;;;;;;;12.25;11.05;;;22.60;99.90;;;;;;5073157;28;20021;-77
2022/06/30 04:11:50;;;;;;;12.70;11.30;;;22.60;99.90;;;;;;5072442;28;20056;-76
2022/06/30 04:14:16;;;;;;;16.23;10.98;;;22.60;99.90;;;;;;5073513;28;20029;-76
2022/06/30 04:16:42;;;;;;;17.00;12.35;;;22.60;99.90;;;;;;5073303;28;20107;-76
2022/06/30 04:19:08;;;;;;;13.40;11.95;;;22.60;99.90;;;;;;5073730;28;20021;-76
2022/06/30 04:21:33;;;;;;;14.65;10.88;;;22.70;99.90;;;;;;5075045;28;20070;-77
2022/06/30 04:23:59;;;;;;;13.60;10.98;;;22.70;99.90;;;;;;5077329;28;20071;-78
2022/06/30 04:26:25;;;;;;;13.02;11.00;;;22.70;99.90;;;;;;5077487;28;20509;-76
2022/06/30 04:28:51;;;;;;;17.50;11.80;;;22.80;99.90;;;;;;5077550;28;20074;-77
2022/06/30 04:34:01;;;;;;;12.85;11.15;;;22.90;99.90;;;;;;5077465;28;20039;-77
2022/06/30 04:36:27;;;;;;;13.73;11.45;;;23.00;99.90;;;;;;5077570;28;20393;-77
2022/06/30 04:38:52;;;;;;;16.23;11.10;;;23.10;99.90;;;;;;5077741;28;20414;-78
2022/06/30 04:41:24;;;;;;;20.40;11.85;;;23.10;99.90;;;;;;5077572;28;20067;-78
2022/06/30 04:43:52;;;;;;;15.68;12.32;;;23.20;99.90;;;;;;5077668;28;20485;-77
2022/06/30 04:46:17;;;;;;;15.77;12.43;;;23.30;99.90;;;;;;5077219;28;20033;-75
2022/06/30 04:48:43;;;;;;;14.23;10.95;;;23.30;99.90;;;;;;5076142;28;20417;-76
2022/06/30 04:51:09;;;;;;;17.83;11.05;;;23.40;99.90;;;;;;5076684;28;20028;-77
2022/06/30 04:53:35;;;;;;;13.40;10.52;;;23.50;99.90;;;;;;5076029;28;20051;-77
2022/06/30 04:56:01;;;;;;;12.13;10.88;;;23.60;99.90;;;;;;5077356;28;20115;-77
2022/06/30 04:58:27;;;;;;;14.70;12.50;;;23.60;99.90;;;;;;5077003;28;20028;-78
2022/06/30 05:00:52;;;;;;;12.45;11.25;;;23.70;99.90;;;;;;5075862;28;20028;-76
2022/06/30 05:03:18;;;;;;;12.65;11.48;;;23.80;99.90;;;;;;5076789;28;20040;-77
2022/06/30 05:05:44;;;;;;;12.52;11.30;;;23.80;99.90;;;;;;5076421;28;20028;-78
2022/06/30 05:08:10;;;;;;;15.63;11.77;;;23.90;99.90;;;;;;5077062;28;20463;-77
2022/06/30 05:10:36;;;;;;;16.05;11.70;;;24.00;99.90;;;;;;5077082;28;20032;-77
2022/06/30 05:13:01;;;;;;;13.75;11.63;;;24.00;99.90;;;;;;5076658;28;20086;-77
2022/06/30 05:15:27;;;;;;;12.93;10.05;;;24.10;99.90;;;;;;5076535;28;20078;-78
2022/06/30 05:17:53;;;;;;;12.27;10.77;;;24.20;99.90;;;;;;5075474;28;20020;-78
2022/06/30 05:20:19;;;;;;;14.40;11.73;;;24.30;99.90;;;;;;5076598;28;20086;-76
2022/06/30 05:22:45;;;;;;;17.13;11.20;;;24.40;99.90;;;;;;5076478;28;20021;-77
2022/06/30 05:27:55;;;;;;;13.18;10.43;;;24.60;99.90;;;;;;5076236;28;20071;-77
2022/06/30 05:30:21;;;;;;;18.48;10.35;;;24.80;99.90;;;;;;5076179;28;20379;-75
2022/06/30 05:32:47;;;;;;;11.68;10.20;;;;;;;;;;5075870;28;20051;-76
2022/06/30 05:35:13;;;;;;;12.70;10.63;;;;;;;;;;5076504;28;20024;-76
2022/06/30 05:37:39;;;;;;;13.20;9.88;;;;;;;;;;5076556;28;20029;-76
2022/06/30 05:40:06;;;;;;;11.57;10.38;;;;;;;;;;5075818;28;20027;-76
2022/06/30 05:42:32;;;;;;;11.45;9.80;;;;;;;;;;5075150;28;20052;-77
2022/06/30 05:44:59;;;;;;;14.60;10.13;;;;;;;;;;5076092;28;20478;-77
2022/06/30 05:47:25;;;;;;;14.30;10.07;;;;;;;;;;5075977;28;20025;-76
2022/06/30 05:49:51;;;;;;;11.40;10.00;;;;;;;;;;5076232;28;20024;-77
2022/06/30 05:52:17;;;;;;;13.02;9.50;;;;;;;;;;5076178;28;20503;-77
2022/06/30 05:54:43;;;;;;;10.45;9.35;;;;;;;;;;5075912;28;20141;-78
2022/06/30 05:57:10;;;;;;;10.43;9.18;;;;;;;;;;5076182;28;20035;-78
2022/06/30 05:59:36;;;;;;;12.68;9.85;;;;;;;;;;5075054;28;20043;-77
2022/06/30 06:02:02;;;;;;;13.13;10.00;;;;;;;;;;5074508;28;20050;-76
2022/06/30 06:04:29;;;;;;;12.10;10.48;;;;;;;;;;5074869;28;20077;-78
2022/06/30 06:06:55;;;;;;;13.85;10.10;;;;;;;;;;5074770;28;20048;-76
2022/06/30 06:09:21;;;;;;;15.45;9.43;;;;;;;;;;5073844;28;20111;-77
2022/06/30 06:11:47;;;;;;;13.82;9.52;;;;;;;;;;5075259;28;20074;-77
2022/06/30 06:14:13;;;;;;;17.17;10.20;;;;;;;;;;5075655;28;20034;-77
2022/06/30 06:16:40;;;;;;;13.48;9.75;;;;;;;;;;5075592;28;20024;-77
2022/06/30 06:19:06;;;;;;;21.20;9.90;;;;;;;;;;5074476;28;20116;-77
2022/06/30 06:21:36;;;;;;;16.13;10.32;;;;;;;;;;5075353;28;20471;-77
2022/06/30 06:24:02;;;;;;;14.20;10.25;;;;;;;;;;5075184;28;20055;-77
2022/06/30 06:26:28;;;;;;;11.82;9.48;;;;;;;;;;5074253;28;20044;-77
2022/06/30 06:29:06;;;;;;;10.55;9.27;;;;;;;;;;5076126;28;20550;-78
2022/06/30 06:31:37;;;;;;;11.43;9.80;;;;;;;;;;5074773;28;20037;-76
2022/06/30 06:34:03;;;;;;;11.35;9.98;;;;;;;;;;5075174;28;20441;-77
2022/06/30 06:36:30;;;;;;;14.52;9.55;;;;;;;;;;5073027;28;20056;-76
2022/06/30 06:38:58;;;;;;;11.00;9.90;;;;;;;;;;5074813;28;20025;-78
2022/06/30 06:41:25;;;;;;;12.02;9.80;;;;;;;;;;5074692;28;20032;-77
2022/06/30 06:43:52;;;;;;;10.52;9.52;;;;;;;;;;5074046;28;20013;-77
2022/06/30 06:46:18;;;;;;;13.13;9.32;;;;;;;;;;5074862;28;20483;-76
2022/06/30 06:48:45;;;;;;;12.88;9.82;;;;;;;;;;5075025;28;20050;-77
2022/06/30 06:51:11;;;;;;;15.05;9.35;;;;;;;;;;5074364;28;20031;-77
2022/06/30 06:53:38;;;;;;;20.38;10.38;;;;;;;;;;5074717;28;20049;-77
2022/06/30 06:56:05;;;;;;;13.32;8.95;;;;;;;;;;5073608;28;20025;-79
2022/06/30 06:58:31;;;;;;;12.35;9.50;;;;;;;;;;5074703;28;20027;-77
2022/06/30 07:00:58;;;;;;;16.67;8.90;;;;;;;;;;5074820;28;20036;-78
2022/06/30 07:03:24;;;;;;;14.27;8.85;;;;;;;;;;5073240;28;20074;-79
2022/06/30 07:05:50;;;;;;;12.07;8.35;;;;;;;;;;5074803;28;20020;-78
2022/06/30 07:08:16;;;;;;;12.80;7.93;;;;;;;;;;5074793;28;20023;-78
2022/06/30 07:10:43;;;;;;;14.73;8.65;;;;;;;;;;5074292;28;20459;-80
2022/06/30 07:13:09;;;;;;;16.27;8.52;;;;;;;;;;5074590;28;20595;-78
2022/06/30 07:15:35;;;;;;;14.57;8.63;;;;;;;;;;5074615;28;20024;-77
2022/06/30 07:18:01;;;;;;;15.70;8.45;;;;;;;;;;5074029;28;20020;-77
2022/06/30 07:20:27;;;;;;;13.57;8.95;;;;;;;;;;5074449;28;20034;-77
2022/06/30 07:22:54;;;;;;;16.98;9.13;;;;;;;;;;5074440;28;20459;-76
2022/06/30 07:25:20;;;;;;;8.95;8.02;;;;;;;;;;5074234;28;20028;-77
2022/06/30 07:27:46;;;;;;;13.00;9.20;;;;;;;;;;5074004;28;20049;-77
2022/06/30 07:30:12;;;;;;;17.02;8.70;;;;;;;;;;5074203;28;20021;-77
2022/06/30 07:32:39;;;;;;;10.68;8.55;;;;;;;;;;5072704;28;20025;-77
2022/06/30 07:35:07;;;;;;;13.40;8.13;;;;;;;;;;5073948;28;20127;-78
2022/06/30 07:37:37;;;;;;;13.05;9.30;;;;;;;;;;5074256;28;20137;-74
2022/06/30 07:40:03;;;;;;;12.70;8.57;;;;;;;;;;5073848;28;20026;-74
2022/06/30 07:42:29;;;;;;;9.25;8.25;;;;;;;;;;5072816;28;20120;-76
2022/06/30 07:44:55;;;;;;;11.98;8.52;;;;;;;;;;5073757;28;20052;-75
2022/06/30 07:47:22;;;;;;;12.20;8.52;;;;;;;;;;5072493;28;20020;-75
2022/06/30 07:49:48;;;;;;;11.57;8.38;;;;;;;;;;5073000;28;20020;-75
2022/06/30 07:52:15;;;;;;;12.40;9.00;;;;;;;;;;5072422;28;20025;-75
2022/06/30 07:54:41;;;;;;;14.40;9.18;;;;;;;;;;5073436;28;20012;-74
2022/06/30 07:57:07;;;;;;;13.32;8.15;;;;;;;;;;5074180;28;20023;-75
2022/06/30 07:59:33;;;;;;;12.07;8.00;;;;;;;;;;5073623;28;20020;-74
2022/06/30 08:02:00;;;;;;;15.25;8.63;;;;;;;;;;5074175;28;20036;-75
2022/06/30 08:04:27;;;;;;;19.20;8.68;;;;;;;;;;5073892;28;20021;-74
2022/06/30 08:06:53;;;;;;;19.38;9.02;;;;;;;;;;5073417;28;20048;-75
2022/06/30 08:09:19;;;;;;;15.88;9.27;;;;;;;;;;5073384;28;20064;-75
2022/06/30 08:11:45;;;;;;;12.52;8.50;;;;;;;;;;5072320;28;20028;-76
2022/06/30 08:14:12;;;;;;;17.60;9.23;;;;;;;;;;5072796;28;20017;-76
2022/06/30 08:16:38;;;;;;;11.15;9.10;;;;;;;;;;5073205;28;20021;-76
2022/06/30 08:19:04;;;;;;;14.48;8.35;;;;;;;;;;5073101;28;20028;-75
2022/06/30 08:21:31;;;;;;;13.93;8.35;;;;;;;;;;5071188;28;20029;-76
2022/06/30 08:23:57;;;;;;;18.95;8.30;;;;;;;;;;5073094;28;20452;-75
2022/06/30 08:26:23;;;;;;;8.48;7.43;;;;;;;;;;5072596;28;20051;-76
2022/06/30 08:28:50;;;;;;;10.80;7.88;;;;;;;;;;5072488;28;20025;-75
2022/06/30 08:31:16;;;;;;;13.13;7.97;;;;;;;;;;5070546;28;20764;-76
2022/06/30 08:33:42;;;;;;;14.07;8.25;;;;;;;;;;5071363;28;20025;-76
2022/06/30 08:36:08;;;;;;;12.43;8.23;;;;;;;;;;5071255;28;20081;-75
2022/06/30 08:38:35;;;;;;;15.45;8.35;;;;;;;;;;5070233;28;20425;-75
2022/06/30 08:44:00;;;;;;;12.02;8.02;;;;;;;;;;5051009;28;20163;-76
2022/06/30 08:46:28;;;;;;;17.42;8.90;;;;;;;;;;5070031;28;20050;-75
2022/06/30 08:48:54;;;;;;;13.90;7.97;;;;;;;;;;5071086;28;20104;-75
2022/06/30 08:51:21;;;;;;;14.98;8.82;;;;;;;;;;5071235;28;20032;-74
2022/06/30 08:53:54;;;;;;;9.35;8.30;;;;;;;;;;5071462;28;20024;-75
2022/06/30 08:56:21;;;;;;;12.27;7.63;;;;;;;;;;5067464;28;20438;-76
2022/06/30 08:58:48;;;;;;;10.52;7.93;;;;;;;;;;5072373;28;20024;-76
2022/06/30 09:01:14;;;;;;;8.77;7.50;;;;;;;;;;5072631;28;20024;-74
2022/06/30 09:03:40;;;;;;;11.80;7.90;;;;;;;;;;5071855;28;20075;-76
2022/06/30 09:06:06;;;;;;;19.83;7.25;;;;;;;;;;5072285;28;20416;-75
2022/06/30 09:08:33;;;;;;;11.05;7.53;;;;;;;;;;5075120;28;20017;-75
2022/06/30 09:10:59;;;;;;;13.68;7.45;;;;;;;;;;5075968;28;20032;-74
2022/06/30 09:13:25;;;;;;;11.35;7.40;;;;;;;;;;5075074;28;20024;-75
2022/06/30 09:15:52;;;;;;;11.95;7.30;;;;;;;;;;5076052;28;20020;-76
2022/06/30 09:18:26;;;;;;;10.73;7.55;;;;;;;;;;5076023;28;20025;-76
2022/06/30 09:20:52;;;;;;;11.63;7.20;;;;;;;;;;5076080;28;20111;-75
2022/06/30 09:23:19;;;;;;;9.10;7.13;;;;;;;;;;5076018;28;20035;-75
2022/06/30 09:25:49;;;;;;;11.90;7.55;;;;;;;;;;5074659;28;20017;-76
2022/06/30 09:28:16;;;;;;;16.92;7.72;;;;;;;;;;5075984;28;20043;-76
2022/06/30 09:30:42;;;;;;;12.20;8.02;;;;;;;;;;5075320;28;20108;-76
2022/06/30 09:33:09;;;;;;;10.35;7.35;;;;;;;;;;5075987;28;20537;-77
2022/06/30 09:35:38;;;;;;;11.07;8.63;;;;;;;;;;5075049;28;20044;-77
2022/06/30 09:38:08;;;;;;;11.73;8.10;;;;;;;;;;5074899;28;20055;-76
2022/06/30 09:40:35;;;;;;;11.18;7.88;;;;;;;;;;5073133;28;20028;-75
2022/06/30 09:43:01;;;;;;;16.27;8.98;;;;;;;;;;5071900;28;20028;-75
2022/06/30 09:45:36;;;;;;;8.63;6.45;;;;;;;;;;5074097;28;20456;-76
2022/06/30 09:48:03;;;;;;;13.57;6.50;;;;;;;;;;5071823;28;20066;-75
2022/06/30 09:50:29;;;;;;;14.38;7.50;;;;;;;;;;5073971;28;20031;-76
2022/06/30 09:53:05;;;;;;;10.68;7.15;;;;;;;;;;5074059;28;20049;-75
2022/06/30 09:55:39;;;;;;;9.50;7.38;;;;;;;;;;5072811;28;20391;-75
2022/06/30 09:58:06;;;;;;;13.80;7.93;;;;;;;;;;5075408;28;20048;-75
2022/06/30 10:00:42;;;;;;;12.25;7.15;;;;;;;;;;5075036;28;20029;-74
2022/06/30 10:03:08;;;;;;;15.35;7.55;;;;;;;;;;5075531;28;20021;-77
2022/06/30 10:05:34;;;;;;;11.50;7.22;;;;;;;;;;5073502;28;20065;-76
2022/06/30 10:08:01;;;;;;;12.00;7.45;;;;;;;;;;5075604;28;20039;-75
2022/06/30 10:10:29;;;;;;;11.50;7.00;;;;;;;;;;5074907;28;20025;-76
2022/06/30 10:12:55;;;;;;;16.13;7.97;;;;;;;;;;5074998;28;20463;-75
2022/06/30 10:15:23;;;;;;;11.45;7.75;;;;;;;;;;5074893;28;20429;-75
2022/06/30 10:17:53;;;;;;;9.57;7.20;;;;;;;;;;5074624;28;20390;-75
2022/06/30 10:20:20;;;;;;;11.27;7.50;;;;;;;;;;5073010;28;20031;-76
2022/06/30 10:22:47;;;;;;;13.13;7.47;;;;;;;;;;5074273;28;20021;-76
2022/06/30 10:25:13;;;;;;;12.45;6.75;;;;;;;;;;5073780;28;20024;-76
2022/06/30 10:27:39;;;;;;;12.40;7.50;;;;;;;;;;5074074;28;20036;-77
2022/06/30 10:30:09;;;;;;;8.20;7.22;;;;;;;;;;5074848;28;20112;-76
2022/06/30 10:32:35;;;;;;;11.20;7.55;;;;;;;;;;5074464;28;20020;-76
2022/06/30 10:35:11;;;;;;;10.35;7.15;;;;;;;;;;5074478;28;20032;-76
2022/06/30 10:37:43;;;;;;;10.70;6.47;;;;;;;;;;5074796;28;20028;-76
2022/06/30 10:40:09;;;;;;;;;;;;;;;;;;5075358;28;20044;-76
2022/06/30 10:42:41;;;;;;;13.98;8.45;;;;;;;;;;5072883;28;20361;-75
2022/06/30 10:45:28;;;;;;;10.52;7.78;;;;;;;;;;5074612;28;20095;-76
2022/06/30 10:47:57;;;;;;;9.48;7.75;;;;;;;;;;5052687;28;20535;-76
2022/06/30 10:50:31;;;;;;;14.27;7.63;;;;;;;;;;5074660;28;20109;-75
2022/06/30 10:52:57;;;;;;;14.88;7.40;;;;;;;;;;5074682;28;20025;-76
2022/06/30 10:55:23;;;;;;;12.43;7.10;;;;;;;;;;5073698;28;20165;-76
2022/06/30 10:58:09;;;;;;;16.17;7.40;;;;;;;;;;5074014;28;20016;-76
2022/06/30 11:00:42;;;;;;;11.85;8.00;;;;;;;;;;5072783;28;20063;-76
2022/06/30 11:03:08;;;;;;;15.15;7.90;;;;;;;;;;5073572;28;20480;-76
2022/06/30 11:05:34;;;;;;;10.40;7.65;;;;;;;;;;5074218;28;20024;-75
2022/06/30 11:08:19;;;;;;;11.57;8.13;;;;;;;;;;5073740;28;20029;-76
2022/06/30 11:10:45;;;;;;;9.82;8.77;;;;;;;;;;5073763;28;20145;-76
2022/06/30 11:13:12;;;;;;;9.60;6.85;;;;;;;;;;5072717;28;20025;-76
2022/06/30 11:15:51;;;;;;;17.17;8.18;;;;;;;;;;5073490;28;20025;-76
2022/06/30 11:18:18;;;;;;;16.55;7.85;;;;;;;;;;5072624;28;20025;-77
2022/06/30 11:20:44;;;;;;;11.93;6.85;;;;;;;;;;5073670;28;20027;-77
2022/06/30 11:23:11;;;;;;;13.77;7.00;;;;;;;;;;5073572;28;20020;-75
2022/06/30 11:28:23;;;;;;;14.70;6.90;;;;;;;;;;5073550;28;20075;-77
2022/06/30 11:30:49;;;;;;;11.95;8.50;;;;;;;;;;5072732;28;20124;-78
2022/06/30 11:33:16;;;;;;;9.18;8.13;;;;;;;;;;5073565;28;20024;-76
2022/06/30 11:35:43;;;;;;;16.33;8.85;;;;;;;;;;5073728;28;20036;-75
2022/06/30 11:38:09;;;;;;;12.13;7.32;;;;;;;;;;5072609;28;20039;-76
2022/06/30 11:40:36;;;;;;;13.63;7.43;;;;;;;;;;5071903;28;20022;-76
2022/06/30 11:43:19;;;;;;;11.20;7.57;;;;;;;;;;5071794;28;20020;-76
2022/06/30 11:45:45;;;;;;;13.13;7.80;;;;;;;;;;5070059;28;20023;-76
2022/06/30 11:48:12;;;;;;;19.63;11.02;;;;;;;;;;5072397;28;20020;-77
2022/06/30 11:50:39;;;;;;;14.52;10.20;;;;;;;;;;5072252;28;20823;-77
2022/06/30 11:53:05;;;;;;;15.07;8.05;;;;;;;;;;5072133;28;20391;-76
2022/06/30 11:55:31;;;;;;;13.85;8.05;;;;;;;;;;5072295;28;20017;-77
2022/06/30 11:57:58;;;;;;;14.98;8.80;;;;;;;;;;5072546;28;20460;-76
2022/06/30 12:00:25;;;;;;;9.98;8.93;;;;;;;;;;5072305;28;20024;-78
2022/06/30 12:02:52;;;;;;;11.55;7.65;;;;;;;;;;5072467;28;20017;-77
2022/06/30 12:05:20;;;;;;;13.70;8.85;;;;;;;;;;5072124;28;20477;-76
2022/06/30 12:07:46;;;;;;;13.80;8.10;;;;;;;;;;5072140;28;20024;-76
2022/06/30 12:10:14;;;;;;;15.00;8.15;;;;;;;;;;5072507;28;20032;-76
2022/06/30 12:12:40;;;;;;;12.23;9.73;;;;;;;;;;5072040;28;20036;-76
2022/06/30 12:15:08;;;;;;;18.67;9.18;;;;;;;;;;5071083;28;20017;-76
2022/06/30 12:17:38;;;;;;;14.35;9.13;;;;;;;;;;5072111;28;20013;-77
2022/06/30 12:20:06;;;;;;;15.02;9.10;;;;;;;;;;5072165;28;20029;-76
2022/06/30 12:22:33;;;;;;;13.18;9.27;;;;;;;;;;5069898;28;20489;-76
2022/06/30 12:25:00;;;;;;;12.88;9.30;;;;;;;;;;5071956;28;20040;-77
2022/06/30 12:27:26;;;;;;;18.02;10.18;;;;;;;;;;5072117;28;20055;-76
2022/06/30 12:30:00;;;;;;;13.43;9.15;;;;;;;;;;5072026;28;20020;-77
2022/06/30 12:32:27;;;;;;;17.08;9.27;;;;;;;;;;5071608;28;20039;-77
2022/06/30 12:34:54;;;;;;;18.67;8.23;;;;;;;;;;5071019;28;20356;-76
2022/06/30 12:37:30;;;;;;;15.25;8.52;;;;;;;;;;5070951;28;20174;-77
2022/06/30 12:39:58;;;;;;;12.18;8.52;;;;;;;;;;5070739;28;20027;-76
2022/06/30 12:42:24;;;;;;;12.55;8.68;;;;;;;;;;5074475;28;20374;-76
2022/06/30 12:44:51;;;;;;;12.65;8.63;;;;;;;;;;5076194;28;20032;-77
2022/06/30 12:47:17;;;;;;;48.03;10.40;;;;;;;;;;5075869;28;20059;-76
2022/06/30 12:49:44;;;;;;;45.13;11.43;;;;;;;;;;5077465;28;20028;-77
2022/06/30 12:52:20;;;;;;;16.40;9.95;;;;;;;;;;5076401;28;20029;-78
2022/06/30 12:54:51;;;;;;;10.77;8.60;;;;;;;;;;5076090;28;20020;-77
2022/06/30 12:57:17;;;;;;;16.27;9.00;;;;;;;;;;5076325;28;20020;-77
2022/06/30 12:59:48;;;;;;;15.32;8.40;;;;;;;;;;5076608;28;20025;-76
2022/06/30 13:02:16;;;;;;;13.35;8.05;;;;;;;;;;5076764;28;20032;-77
2022/06/30 13:04:47;;;;;;;14.77;8.82;;;;;;;;;;5077254;28;20021;-78
2022/06/30 13:07:13;;;;;;;;;;;;;;;;;;5077822;28;20056;-76
2022/06/30 13:09:43;;;;;;;16.77;8.85;;;;;;;;;;5075606;28;19959;-76
2022/06/30 13:12:09;;;;;;;15.65;8.20;;;;;;;;;;5076182;28;20098;-76
2022/06/30 13:14:36;;;;;;;8.55;7.30;;;;;;;;;;5074096;28;20020;-76
2022/06/30 13:17:03;;;;;;;15.05;8.52;;;;;;;;;;5075642;28;20500;-78
2022/06/30 13:19:33;;;;;;;13.85;8.30;;;;;;;;;;5077064;28;20483;-76
2022/06/30 13:21:59;;;;;;;11.07;8.13;;;;;;;;;;5076777;28;20074;-77
2022/06/30 13:24:25;;;;;;;47.72;10.73;;;;;;;;;;5076501;28;20021;-76
2022/06/30 13:26:53;;;;;;;13.85;8.50;;;;;;;;;;5076199;28;20047;-77
2022/06/30 13:29:19;;;;;;;12.75;8.10;;;;;;;;;;5067794;28;20021;-77
2022/06/30 13:31:46;;;;;;;15.27;8.05;;;;;;;;;;5069865;28;20028;-77
2022/06/30 13:34:13;;;;;;;9.38;7.93;;;;;;;;;;5075365;28;20050;-76
2022/06/30 13:36:40;;;;;;;11.70;8.63;;;;;;;;;;5075745;28;20012;-75
2022/06/30 13:39:08;;;;;;;13.48;8.65;;;;;;;;;;5076601;28;20544;-76
2022/06/30 13:41:35;;;;;;;32.55;8.80;;;;;;;;;;5075003;28;20033;-77
2022/06/30 13:44:02;;;;;;;11.73;8.07;;;;;;;;;;5075821;28;20083;-76
2022/06/30 13:46:29;;;;;;;10.90;8.45;;;;;;;;;;5075064;28;20021;-76
2022/06/30 13:48:55;;;;;;;11.35;7.43;;;;;;;;;;5076507;28;20045;-76
2022/06/30 13:51:22;;;;;;;15.40;8.35;;;;;;;;;;5075770;28;20115;-77
2022/06/30 13:53:49;;;;;;;16.27;8.10;;;;;;;;;;5073065;28;20021;-76
2022/06/30 13:56:15;;;;;;;12.45;8.15;;;;;;;;;;5075498;28;20031;-76
2022/06/30 13:58:41;;;;;;;11.07;7.30;;;;;;;;;;5075878;28;20020;-76